Terminal Aerodrome Forecast
Issued by NWS Wichita, KS

Current Version | Previous Version | Text Only | Print | Product List | Glossary On
Versions: 1 2 3 4 5 6 7 8 9 10 11 12 13 14
000
FTUS43 KICT 211120
TAFICT
TAF
KICT 211120Z 2112/2212 18017G25KT P6SM SCT015 OVC025
      TEMPO 2112/2114 BKN015
     FM211800 19019G27KT P6SM VCTS OVC020CB
     FM212000 21014KT P6SM -SHRA VCTS BKN020CB
     FM212200 31016G25KT P6SM SHRA VCTS BKN035CB
     FM220000 35012KT P6SM BKN045
     FM220300 35014KT P6SM BKN150=

USA.gov is the U.S. government's official web portal to all federal, state and local government web resources and services.